createdAt,value
2019-05-23T00:00:52.712Z,17.02
2019-05-23T00:03:52.380Z,14.53
2019-05-23T00:06:40.042Z,12.73
2019-05-23T00:09:25.212Z,12.20
2019-05-23T00:11:59.884Z,11.43
2019-05-23T00:14:43.951Z,11.73
2019-05-23T00:17:15.167Z,9.60
2019-05-23T00:19:43.749Z,10.30
2019-05-23T00:22:11.063Z,9.78
2019-05-23T00:24:39.803Z,9.73
2019-05-23T00:27:06.611Z,9.05
2019-05-23T00:29:34.025Z,9.00
2019-05-23T00:32:02.640Z,9.18
2019-05-23T00:34:30.919Z,8.53
2019-05-23T00:36:59.134Z,8.28
2019-05-23T00:39:26.939Z,9.18
2019-05-23T00:41:53.801Z,8.10
2019-05-23T00:44:20.620Z,8.00
2019-05-23T00:46:48.430Z,8.15
2019-05-23T00:49:15.724Z,7.75
2019-05-23T00:51:43.025Z,7.70
2019-05-23T00:54:10.471Z,7.62
2019-05-23T00:56:38.277Z,7.28
2019-05-23T00:59:05.476Z,8.08
2019-05-23T01:01:33.711Z,7.47
2019-05-23T01:04:00.889Z,6.90
2019-05-23T01:06:28.941Z,7.42
2019-05-23T01:08:56.579Z,6.95
2019-05-23T01:11:24.829Z,7.20
2019-05-23T01:13:52.251Z,7.65
2019-05-23T01:16:21.551Z,7.47
2019-05-23T01:18:49.031Z,7.83
2019-05-23T01:21:17.410Z,7.45
2019-05-23T01:23:47.245Z,7.50
2019-05-23T01:26:15.053Z,7.22
2019-05-23T01:28:42.782Z,7.37
2019-05-23T01:31:37.102Z,7.25
2019-05-23T01:34:05.097Z,8.03
2019-05-23T01:36:33.180Z,8.00
2019-05-23T01:39:01.268Z,7.85
2019-05-23T01:41:30.005Z,8.28
2019-05-23T01:43:57.978Z,7.80
2019-05-23T01:46:25.464Z,8.18
2019-05-23T01:48:52.390Z,8.00
2019-05-23T01:51:20.896Z,8.15
2019-05-23T01:53:47.553Z,7.28
2019-05-23T01:56:14.718Z,8.63
2019-05-23T01:58:41.968Z,8.68
2019-05-23T02:01:09.589Z,9.75
2019-05-23T02:03:37.553Z,8.65
2019-05-23T02:06:04.824Z,8.90
2019-05-23T02:08:31.418Z,9.08
2019-05-23T02:10:58.188Z,9.63
2019-05-23T02:13:26.567Z,9.30
2019-05-23T02:15:54.293Z,10.60
2019-05-23T02:18:23.244Z,10.50
2019-05-23T02:20:50.404Z,11.40
2019-05-23T02:23:17.517Z,11.43
2019-05-23T02:25:45.345Z,10.98
2019-05-23T02:28:13.453Z,11.25
2019-05-23T02:30:40.196Z,11.97
2019-05-23T02:33:09.810Z,12.20
2019-05-23T02:35:37.306Z,12.20
2019-05-23T02:38:08.936Z,12.33
2019-05-23T02:40:52.532Z,13.15
2019-05-23T02:43:21.112Z,12.80
2019-05-23T02:45:51.050Z,12.95
2019-05-23T02:48:19.555Z,13.38
2019-05-23T02:51:06.596Z,13.72
2019-05-23T02:53:34.943Z,13.68
2019-05-23T02:56:08.672Z,14.70
2019-05-23T02:58:48.905Z,14.38
2019-05-23T03:01:27.099Z,13.65
2019-05-23T03:03:56.337Z,15.30
2019-05-23T03:06:24.511Z,14.33
2019-05-23T03:08:51.907Z,14.00
2019-05-23T03:11:28.354Z,14.15
2019-05-23T03:13:57.292Z,14.80
2019-05-23T03:16:25.672Z,14.30
2019-05-23T03:18:57.821Z,13.62
2019-05-23T03:21:25.181Z,13.38
2019-05-23T03:23:52.275Z,14.07
2019-05-23T03:26:39.358Z,14.10
2019-05-23T03:29:07.808Z,14.30
2019-05-23T03:31:36.387Z,13.72
2019-05-23T03:34:04.887Z,14.73
2019-05-23T03:36:33.460Z,13.18
2019-05-23T03:39:01.694Z,13.85
2019-05-23T03:41:30.685Z,13.62
2019-05-23T03:43:58.665Z,13.65
2019-05-23T03:46:27.634Z,13.70
2019-05-23T03:48:55.882Z,14.35
2019-05-23T03:51:23.310Z,14.18
2019-05-23T03:53:51.724Z,14.80
2019-05-23T03:56:19.109Z,12.75
2019-05-23T03:58:47.481Z,13.40
2019-05-23T04:01:17.640Z,13.28
2019-05-23T04:03:44.430Z,13.65
2019-05-23T04:06:12.305Z,12.23
2019-05-23T04:08:39.017Z,12.78
2019-05-23T04:11:05.693Z,13.62
2019-05-23T04:13:32.397Z,13.13
2019-05-23T04:16:00.004Z,14.18
2019-05-23T04:18:26.797Z,13.48
2019-05-23T04:20:53.796Z,13.45
2019-05-23T04:23:21.212Z,12.45
2019-05-23T04:25:48.454Z,12.70
2019-05-23T04:28:24.552Z,12.43
2019-05-23T04:30:53.517Z,12.13
2019-05-23T04:33:20.292Z,13.08
2019-05-23T04:35:47.764Z,12.30
2019-05-23T04:38:15.545Z,13.48
2019-05-23T04:40:42.406Z,12.53
2019-05-23T04:43:08.889Z,12.40
2019-05-23T04:45:35.991Z,12.50
2019-05-23T04:48:04.314Z,13.90
2019-05-23T04:50:31.780Z,13.30
2019-05-23T04:52:59.162Z,13.45
2019-05-23T04:55:26.676Z,13.10
2019-05-23T04:57:53.642Z,12.68
2019-05-23T05:00:20.887Z,29.00
2019-05-23T05:02:47.647Z,25.40
2019-05-23T05:05:15.370Z,20.85
2019-05-23T05:07:42.643Z,13.28
2019-05-23T05:10:12.039Z,13.93
2019-05-23T05:12:38.683Z,15.32
2019-05-23T05:15:05.641Z,14.95
2019-05-23T05:17:34.150Z,15.55
2019-05-23T05:20:00.762Z,15.25
2019-05-23T05:22:27.509Z,16.65
2019-05-23T05:24:54.232Z,16.25
2019-05-23T05:27:21.177Z,16.77
2019-05-23T05:29:48.378Z,17.07
2019-05-23T05:32:15.634Z,15.38
2019-05-23T05:34:42.728Z,15.13
2019-05-23T05:37:12.743Z,13.88
2019-05-23T05:39:39.426Z,14.33
2019-05-23T05:42:08.732Z,14.18
2019-05-23T05:44:37.734Z,13.43
2019-05-23T05:47:04.587Z,14.38
2019-05-23T05:49:33.273Z,13.48
2019-05-23T05:51:59.948Z,14.55
2019-05-23T05:54:26.581Z,14.50
2019-05-23T05:56:53.037Z,16.15
2019-05-23T05:59:19.542Z,18.85
2019-05-23T06:01:49.949Z,15.90
2019-05-23T06:04:18.291Z,14.93
2019-05-23T06:07:01.843Z,14.63
2019-05-23T06:09:34.125Z,13.88
2019-05-23T06:12:02.357Z,13.85
2019-05-23T06:14:31.077Z,16.27
2019-05-23T06:16:57.658Z,17.62
2019-05-23T06:19:27.279Z,15.98
2019-05-23T06:21:53.925Z,16.23
2019-05-23T06:24:39.304Z,16.10
2019-05-23T06:26:49.033Z,16.75
2019-05-23T06:29:15.835Z,15.95
2019-05-23T06:31:42.680Z,16.42
2019-05-23T06:34:11.024Z,15.98
2019-05-23T06:36:37.935Z,17.15
2019-05-23T06:39:07.572Z,19.60
2019-05-23T06:41:34.230Z,18.65
2019-05-23T06:44:01.508Z,20.60
2019-05-23T06:46:28.393Z,18.00
2019-05-23T06:48:55.144Z,17.75
2019-05-23T06:51:22.579Z,17.15
2019-05-23T06:53:49.781Z,17.15
2019-05-23T06:56:16.910Z,18.55
2019-05-23T06:58:43.485Z,17.95
2019-05-23T07:01:10.013Z,18.10
2019-05-23T07:03:42.640Z,17.37
2019-05-23T07:06:06.315Z,17.37
2019-05-23T07:08:32.934Z,18.30
2019-05-23T07:10:59.774Z,19.67
2019-05-23T07:13:29.150Z,17.05
2019-05-23T07:15:55.672Z,17.35
2019-05-23T07:18:22.350Z,17.30
2019-05-23T07:20:48.961Z,18.12
2019-05-23T07:23:15.966Z,18.50
2019-05-23T07:25:43.025Z,18.02
2019-05-23T07:28:09.811Z,19.32
2019-05-23T07:30:36.483Z,19.30
2019-05-23T07:33:03.774Z,21.25
2019-05-23T07:35:30.479Z,19.95
2019-05-23T07:37:57.087Z,20.70
2019-05-23T07:40:25.450Z,19.62
2019-05-23T07:42:52.161Z,19.85
2019-05-23T07:45:22.026Z,22.82
2019-05-23T07:47:48.628Z,20.72
2019-05-23T07:50:15.401Z,20.62
2019-05-23T07:52:42.908Z,21.37
2019-05-23T07:55:28.658Z,21.68
2019-05-23T07:57:56.759Z,19.60
2019-05-23T08:00:27.837Z,17.52
2019-05-23T08:02:58.837Z,19.48
2019-05-23T08:05:26.322Z,22.35
2019-05-23T08:07:53.581Z,20.92
2019-05-23T08:10:33.275Z,22.32
2019-05-23T08:12:49.205Z,23.02
2019-05-23T08:15:17.062Z,22.93
2019-05-23T08:17:44.011Z,23.00
2019-05-23T08:20:11.668Z,20.70
2019-05-23T08:22:38.101Z,20.62
2019-05-23T08:25:04.747Z,20.32
2019-05-23T08:27:33.378Z,19.55
2019-05-23T08:30:02.343Z,19.70
2019-05-23T08:32:29.521Z,19.00
2019-05-23T08:34:56.089Z,19.98
2019-05-23T08:37:23.542Z,19.75
2019-05-23T08:39:50.939Z,21.17
2019-05-23T08:42:18.175Z,20.15
2019-05-23T08:44:45.077Z,19.92
2019-05-23T08:47:12.754Z,21.52
2019-05-23T08:49:41.183Z,23.20
2019-05-23T08:52:07.789Z,20.65
2019-05-23T08:54:34.807Z,22.62
2019-05-23T08:57:01.790Z,22.35
2019-05-23T08:59:29.443Z,21.00
2019-05-23T09:01:55.955Z,24.00
2019-05-23T09:04:23.135Z,25.05
2019-05-23T09:06:50.708Z,30.97
2019-05-23T09:09:28.930Z,23.27
2019-05-23T09:11:46.680Z,24.98
2019-05-23T09:14:13.408Z,24.15
2019-05-23T09:16:40.422Z,22.70
2019-05-23T09:19:07.278Z,22.48
2019-05-23T09:21:33.846Z,21.68
2019-05-23T09:24:00.485Z,21.35
2019-05-23T09:26:27.057Z,19.42
2019-05-23T09:28:53.703Z,19.62
2019-05-23T09:31:21.404Z,19.35
2019-05-23T09:33:47.779Z,19.25
2019-05-23T09:36:14.880Z,18.42
2019-05-23T09:38:41.415Z,18.70
2019-05-23T09:41:08.108Z,16.90
2019-05-23T09:43:35.848Z,16.17
2019-05-23T09:46:02.738Z,17.25
2019-05-23T09:48:30.156Z,17.35
2019-05-23T09:50:57.320Z,18.02
2019-05-23T09:53:24.350Z,18.77
2019-05-23T09:55:51.396Z,17.30
2019-05-23T09:58:18.125Z,16.37
2019-05-23T10:00:44.842Z,16.05
2019-05-23T10:03:11.807Z,14.75
2019-05-23T10:05:43.176Z,16.35
2019-05-23T10:08:07.953Z,22.93
2019-05-23T10:10:35.526Z,18.87
2019-05-23T10:13:02.222Z,16.73
2019-05-23T10:18:14.243Z,16.73
2019-05-23T10:20:41.625Z,17.40
2019-05-23T10:23:08.133Z,14.55
2019-05-23T10:25:34.657Z,16.27
2019-05-23T10:28:01.198Z,16.67
2019-05-23T10:30:28.122Z,14.90
2019-05-23T10:32:54.756Z,15.98
2019-05-23T10:35:21.726Z,15.43
2019-05-23T10:37:48.145Z,13.83
2019-05-23T10:40:15.520Z,14.47
2019-05-23T10:42:42.265Z,13.65
2019-05-23T10:45:09.467Z,13.78
2019-05-23T10:47:36.179Z,13.30
2019-05-23T10:50:08.151Z,13.30
2019-05-23T10:52:34.165Z,12.50
2019-05-23T10:55:00.912Z,13.22
2019-05-23T10:57:27.407Z,12.18
2019-05-23T10:59:53.933Z,12.30
2019-05-23T11:02:20.465Z,11.38
2019-05-23T11:04:49.052Z,12.93
2019-05-23T11:07:17.106Z,12.43
2019-05-23T11:09:44.236Z,13.20
2019-05-23T11:12:10.761Z,11.33
2019-05-23T11:14:37.849Z,10.98
2019-05-23T11:17:05.754Z,12.03
2019-05-23T11:19:32.426Z,11.60
2019-05-23T11:21:59.074Z,11.65
2019-05-23T11:24:25.599Z,11.30
2019-05-23T11:26:52.355Z,11.12
2019-05-23T11:29:18.952Z,12.30
2019-05-23T11:31:45.600Z,12.70
2019-05-23T11:34:12.111Z,12.40
2019-05-23T11:36:39.267Z,10.50
2019-05-23T11:39:07.487Z,9.90
2019-05-23T11:41:34.697Z,10.58
2019-05-23T11:44:02.584Z,9.60
2019-05-23T11:46:31.534Z,12.07
2019-05-23T11:48:59.019Z,11.78
2019-05-23T11:51:26.320Z,10.78
2019-05-23T11:54:06.622Z,9.93
2019-05-23T11:56:21.683Z,10.63
2019-05-23T11:58:48.632Z,9.65
2019-05-23T12:01:29.280Z,10.72
2019-05-23T12:03:57.832Z,12.65
2019-05-23T12:06:26.911Z,11.60
2019-05-23T12:08:54.154Z,12.23
2019-05-23T12:11:21.661Z,11.40
2019-05-23T12:13:48.133Z,11.35
2019-05-23T12:16:14.940Z,12.30
2019-05-23T12:18:41.824Z,10.98
2019-05-23T12:21:08.326Z,10.63
2019-05-23T12:23:34.969Z,10.25
2019-05-23T12:26:01.631Z,11.33
2019-05-23T12:28:28.363Z,11.50
2019-05-23T12:30:55.470Z,13.72
2019-05-23T12:33:22.055Z,16.52
2019-05-23T12:35:48.702Z,14.65
2019-05-23T12:38:15.734Z,11.65
2019-05-23T12:40:42.601Z,13.60
2019-05-23T12:43:09.177Z,13.68
2019-05-23T12:45:35.670Z,12.80
2019-05-23T12:48:21.043Z,10.80
2019-05-23T12:53:17.694Z,11.48
2019-05-23T12:55:44.459Z,12.45
2019-05-23T12:58:11.215Z,13.93
2019-05-23T13:00:39.773Z,15.38
2019-05-23T13:03:07.213Z,13.83
2019-05-23T13:05:35.763Z,12.30
2019-05-23T13:08:06.062Z,12.78
2019-05-23T13:10:32.143Z,12.15
2019-05-23T13:12:59.603Z,12.40
2019-05-23T13:15:27.038Z,12.28
2019-05-23T13:17:53.777Z,12.73
2019-05-23T13:20:20.820Z,12.20
2019-05-23T13:22:48.514Z,11.57
2019-05-23T13:25:15.656Z,15.50
2019-05-23T13:27:42.392Z,12.88
2019-05-23T13:30:09.867Z,11.20
2019-05-23T13:32:36.598Z,12.93
2019-05-23T13:35:05.891Z,12.68
2019-05-23T13:37:32.724Z,12.88
2019-05-23T13:39:59.254Z,11.88
2019-05-23T13:42:27.140Z,12.73
2019-05-23T13:44:54.023Z,13.62
2019-05-23T13:47:20.901Z,12.70
2019-05-23T13:49:47.617Z,10.60
2019-05-23T13:52:14.217Z,12.95
2019-05-23T13:54:40.929Z,11.22
2019-05-23T13:57:09.158Z,10.95
2019-05-23T13:59:36.849Z,10.30
2019-05-23T14:02:05.406Z,11.48
2019-05-23T14:04:31.981Z,10.90
2019-05-23T14:06:58.530Z,10.15
2019-05-23T14:09:26.148Z,11.95
2019-05-23T14:12:19.495Z,11.38
2019-05-23T14:14:21.131Z,10.05
2019-05-23T14:16:49.803Z,10.35
2019-05-23T14:19:16.474Z,9.88
2019-05-23T14:21:43.345Z,9.88
2019-05-23T14:24:09.919Z,11.28
2019-05-23T14:26:44.386Z,9.68
2019-05-23T14:29:11.011Z,9.10
2019-05-23T14:31:39.428Z,10.68
2019-05-23T14:34:07.824Z,9.25
2019-05-23T14:36:36.263Z,9.80
2019-05-23T14:39:07.549Z,8.30
2019-05-23T14:41:45.297Z,7.62
2019-05-23T14:44:07.039Z,8.55
2019-05-23T14:46:35.447Z,8.63
2019-05-23T14:49:12.910Z,7.95
2019-05-23T14:51:41.508Z,9.18
2019-05-23T14:54:28.110Z,7.97
2019-05-23T14:56:55.119Z,9.00
2019-05-23T14:59:22.803Z,8.38
2019-05-23T15:01:49.944Z,8.88
2019-05-23T15:04:17.184Z,9.80
2019-05-23T15:06:44.015Z,9.15
2019-05-23T15:09:10.645Z,8.50
2019-05-23T15:11:37.994Z,10.35
2019-05-23T15:14:04.535Z,9.23
2019-05-23T15:16:31.216Z,8.13
2019-05-23T15:18:58.467Z,7.65
2019-05-23T15:21:25.151Z,7.72
2019-05-23T15:23:51.929Z,7.83
2019-05-23T15:26:23.134Z,7.87
2019-05-23T15:28:47.955Z,6.65
2019-05-23T15:31:14.630Z,6.72
2019-05-23T15:33:41.336Z,6.45
2019-05-23T15:36:08.010Z,6.62
2019-05-23T15:38:34.653Z,7.72
2019-05-23T15:41:01.535Z,6.40
2019-05-23T15:43:28.078Z,6.75
2019-05-23T15:45:54.727Z,6.60
2019-05-23T15:48:21.272Z,6.37
2019-05-23T15:50:49.830Z,6.50
2019-05-23T15:53:35.491Z,6.97
2019-05-23T15:56:25.895Z,6.97
2019-05-23T15:58:39.552Z,5.55
2019-05-23T16:01:10.666Z,6.42
2019-05-23T16:03:39.391Z,5.12
2019-05-23T16:06:07.779Z,6.35
2019-05-23T16:08:35.288Z,5.92
2019-05-23T16:11:02.506Z,5.85
2019-05-23T16:13:29.016Z,6.22
2019-05-23T16:15:55.682Z,7.12
2019-05-23T16:18:22.924Z,7.08
2019-05-23T16:20:49.346Z,7.05
2019-05-23T16:23:15.712Z,6.25
2019-05-23T16:25:42.249Z,7.53
2019-05-23T16:28:08.879Z,6.78
2019-05-23T16:30:35.576Z,7.70
2019-05-23T16:33:02.344Z,7.15
2019-05-23T16:35:29.155Z,7.78
2019-05-23T16:37:55.975Z,7.45
2019-05-23T16:40:22.736Z,6.97
2019-05-23T16:42:49.253Z,6.37
2019-05-23T16:45:16.074Z,7.60
2019-05-23T16:47:42.543Z,7.70
2019-05-23T16:50:09.474Z,6.12
2019-05-23T16:52:36.279Z,7.33
2019-05-23T16:55:06.735Z,7.25
2019-05-23T16:57:51.325Z,6.87
2019-05-23T17:00:26.317Z,7.42
2019-05-23T17:03:13.272Z,7.42
2019-05-23T17:05:53.496Z,6.33
2019-05-23T17:08:33.965Z,6.20
2019-05-23T17:13:53.316Z,5.80
2019-05-23T17:16:27.579Z,5.75
2019-05-23T17:19:08.667Z,6.78
2019-05-23T17:21:37.197Z,6.80
2019-05-23T17:24:08.336Z,5.40
2019-05-23T17:26:53.595Z,5.85
2019-05-23T17:31:59.814Z,13.53
2019-05-23T17:34:26.205Z,13.05
2019-05-23T17:36:52.798Z,27.50
2019-05-23T17:39:20.159Z,81.40
2019-05-23T17:41:46.837Z,93.20
2019-05-23T17:44:13.404Z,58.68
2019-05-23T17:46:40.269Z,33.23
2019-05-23T17:49:06.857Z,30.27
2019-05-23T17:51:33.625Z,24.90
2019-05-23T17:54:00.282Z,22.25
2019-05-23T17:56:27.037Z,10.25
2019-05-23T17:58:53.789Z,8.08
2019-05-23T18:01:23.619Z,12.35
2019-05-23T18:03:50.363Z,7.47
2019-05-23T18:06:16.846Z,7.95
2019-05-23T18:08:44.041Z,8.53
2019-05-23T18:11:10.762Z,7.95
2019-05-23T18:13:37.306Z,8.20
2019-05-23T18:16:04.244Z,7.92
2019-05-23T18:18:31.678Z,7.22
2019-05-23T18:20:59.264Z,7.60
2019-05-23T18:23:26.337Z,7.00
2019-05-23T18:25:52.826Z,7.67
2019-05-23T18:28:19.540Z,7.58
2019-05-23T18:30:54.328Z,7.58
2019-05-23T18:33:23.095Z,8.18
2019-05-23T18:35:51.293Z,7.55
2019-05-23T18:38:18.410Z,9.50
2019-05-23T18:41:01.592Z,9.68
2019-05-23T18:43:14.859Z,7.75
2019-05-23T18:45:43.265Z,7.72
2019-05-23T18:48:10.983Z,8.50
2019-05-23T18:50:38.154Z,8.50
2019-05-23T18:53:06.315Z,8.98
2019-05-23T18:55:33.677Z,8.98
2019-05-23T18:58:00.443Z,8.18
2019-05-23T19:00:50.793Z,8.78
2019-05-23T19:03:17.471Z,8.50
2019-05-23T19:05:46.466Z,8.28
2019-05-23T19:08:13.983Z,8.28
2019-05-23T19:10:41.169Z,10.40
2019-05-23T19:13:07.747Z,9.20
2019-05-23T19:15:34.538Z,8.03
2019-05-23T19:18:01.095Z,8.18
2019-05-23T19:20:28.408Z,8.03
2019-05-23T19:22:55.380Z,8.15
2019-05-23T19:25:23.467Z,8.65
2019-05-23T19:27:50.111Z,8.00
2019-05-23T19:30:17.415Z,9.40
2019-05-23T19:32:44.392Z,9.03
2019-05-23T19:35:11.342Z,8.20
2019-05-23T19:37:39.221Z,9.20
2019-05-23T19:40:06.045Z,8.93
2019-05-23T19:42:32.804Z,7.92
2019-05-23T19:44:59.327Z,8.80
2019-05-23T19:47:27.153Z,9.95
2019-05-23T19:49:53.696Z,10.60
2019-05-23T19:52:20.534Z,9.20
2019-05-23T19:54:47.119Z,9.60
2019-05-23T19:57:15.439Z,10.40
2019-05-23T19:59:42.472Z,9.08
2019-05-23T20:02:17.436Z,9.70
2019-05-23T20:07:18.779Z,9.15
2019-05-23T20:09:45.633Z,9.75
2019-05-23T20:12:14.452Z,9.20
2019-05-23T20:14:41.230Z,10.23
2019-05-23T20:17:08.196Z,9.25
2019-05-23T20:19:34.879Z,9.68
2019-05-23T20:22:01.787Z,10.75
2019-05-23T20:24:28.216Z,10.23
2019-05-23T20:26:54.853Z,10.15
2019-05-23T20:29:21.738Z,10.23
2019-05-23T20:31:48.734Z,11.48
2019-05-23T20:34:15.618Z,10.90
2019-05-23T20:36:42.372Z,10.35
2019-05-23T20:39:10.355Z,10.35
2019-05-23T20:41:38.875Z,12.43
2019-05-23T20:44:06.232Z,15.80
2019-05-23T20:46:33.175Z,15.15
2019-05-23T20:48:59.804Z,14.23
2019-05-23T20:51:26.536Z,11.40
2019-05-23T20:53:53.142Z,12.35
2019-05-23T20:56:19.783Z,11.80
2019-05-23T20:58:46.457Z,12.53
2019-05-23T21:01:20.804Z,15.53
2019-05-23T21:03:48.228Z,16.10
2019-05-23T21:06:14.853Z,14.33
2019-05-23T21:08:42.686Z,11.60
2019-05-23T21:11:09.373Z,11.55
2019-05-23T21:13:36.071Z,11.30
2019-05-23T21:16:03.367Z,10.68
2019-05-23T21:18:30.136Z,11.35
2019-05-23T21:20:56.688Z,10.85
2019-05-23T21:23:24.551Z,11.88
2019-05-23T21:25:55.740Z,11.30
2019-05-23T21:28:22.412Z,11.12
2019-05-23T21:30:49.454Z,11.03
2019-05-23T21:33:15.991Z,11.38
2019-05-23T21:35:42.484Z,11.18
2019-05-23T21:38:09.167Z,10.45
2019-05-23T21:40:39.336Z,13.85
2019-05-23T21:43:06.016Z,11.83
2019-05-23T21:45:32.952Z,10.78
2019-05-23T21:47:59.626Z,10.78
2019-05-23T21:50:27.457Z,10.28
2019-05-23T21:52:54.383Z,11.85
2019-05-23T21:55:37.751Z,10.65
2019-05-23T21:58:06.708Z,11.03
2019-05-23T22:01:06.144Z,11.25
2019-05-23T22:03:37.004Z,11.05
2019-05-23T22:06:08.052Z,11.60
2019-05-23T22:08:35.668Z,11.65
2019-05-23T22:11:02.721Z,10.18
2019-05-23T22:13:29.363Z,12.10
2019-05-23T22:15:57.994Z,13.20
2019-05-23T22:18:26.856Z,12.60
2019-05-23T22:20:54.184Z,13.43
2019-05-23T22:23:21.432Z,12.37
2019-05-23T22:25:48.097Z,10.13
2019-05-23T22:28:15.089Z,10.88
2019-05-23T22:30:42.105Z,9.98
2019-05-23T22:33:09.021Z,10.53
2019-05-23T22:35:35.933Z,11.22
2019-05-23T22:38:02.582Z,11.40
2019-05-23T22:40:29.160Z,10.88
2019-05-23T22:42:56.603Z,10.65
2019-05-23T22:45:25.214Z,10.50
2019-05-23T22:48:11.533Z,10.53
2019-05-23T22:50:38.177Z,11.45
2019-05-23T22:53:04.697Z,12.15
2019-05-23T22:55:32.362Z,11.45
2019-05-23T22:57:59.074Z,12.23
2019-05-23T23:00:33.544Z,12.35
2019-05-23T23:03:00.566Z,12.20
2019-05-23T23:05:27.067Z,11.78
2019-05-23T23:07:54.479Z,11.25
2019-05-23T23:10:21.361Z,11.65
2019-05-23T23:12:47.998Z,11.88
2019-05-23T23:15:14.777Z,11.93
2019-05-23T23:17:41.174Z,11.70
2019-05-23T23:20:07.869Z,11.85
2019-05-23T23:22:35.275Z,12.53
2019-05-23T23:25:02.023Z,13.13
2019-05-23T23:27:28.736Z,13.10
2019-05-23T23:29:56.611Z,12.78
2019-05-23T23:32:23.258Z,13.48
2019-05-23T23:34:49.824Z,13.50
2019-05-23T23:37:16.456Z,13.00
2019-05-23T23:39:43.008Z,12.73
2019-05-23T23:42:10.795Z,13.38
2019-05-23T23:44:37.126Z,13.03
2019-05-23T23:47:23.206Z,12.73
2019-05-23T23:50:09.521Z,12.90
2019-05-23T23:52:54.533Z,13.05
2019-05-23T23:55:39.597Z,12.40
2019-05-23T23:58:06.051Z,13.55
